sensor_id;sensor_type;location;lat;lon;timestamp;P1;durP1;ratioP1;P2;durP2;ratioP2
31730;SDS011;18310;55.586;12.286;2023-04-09T00:02:13;5.65;;;2.03;;
31730;SDS011;18310;55.586;12.286;2023-04-09T00:05:16;5.68;;;1.58;;
31730;SDS011;18310;55.586;12.286;2023-04-09T00:08:19;5.67;;;2.07;;
31730;SDS011;18310;55.586;12.286;2023-04-09T00:11:26;4.65;;;1.65;;
31730;SDS011;18310;55.586;12.286;2023-04-09T00:14:29;6.65;;;1.80;;
31730;SDS011;18310;55.586;12.286;2023-04-09T00:17:32;3.45;;;1.50;;
31730;SDS011;18310;55.586;12.286;2023-04-09T00:20:35;6.53;;;1.52;;
31730;SDS011;18310;55.586;12.286;2023-04-09T00:23:39;4.83;;;1.40;;
31730;SDS011;18310;55.586;12.286;2023-04-09T00:26:44;3.45;;;1.45;;
31730;SDS011;18310;55.586;12.286;2023-04-09T00:29:47;4.53;;;1.48;;
31730;SDS011;18310;55.586;12.286;2023-04-09T00:32:50;3.60;;;1.60;;
31730;SDS011;18310;55.586;12.286;2023-04-09T00:35:54;3.67;;;1.60;;
31730;SDS011;18310;55.586;12.286;2023-04-09T00:38:57;4.33;;;1.70;;
31730;SDS011;18310;55.586;12.286;2023-04-09T00:42:02;4.63;;;1.50;;
31730;SDS011;18310;55.586;12.286;2023-04-09T00:45:05;4.43;;;1.88;;
31730;SDS011;18310;55.586;12.286;2023-04-09T00:48:09;5.45;;;1.10;;
31730;SDS011;18310;55.586;12.286;2023-04-09T00:51:13;3.40;;;1.75;;
31730;SDS011;18310;55.586;12.286;2023-04-09T00:54:17;5.38;;;1.67;;
31730;SDS011;18310;55.586;12.286;2023-04-09T00:57:22;7.07;;;2.20;;
31730;SDS011;18310;55.586;12.286;2023-04-09T01:00:25;4.07;;;1.40;;
31730;SDS011;18310;55.586;12.286;2023-04-09T01:03:28;5.30;;;1.93;;
31730;SDS011;18310;55.586;12.286;2023-04-09T01:06:33;6.70;;;1.83;;
31730;SDS011;18310;55.586;12.286;2023-04-09T01:09:42;3.20;;;1.35;;
31730;SDS011;18310;55.586;12.286;2023-04-09T01:12:53;4.15;;;1.70;;
31730;SDS011;18310;55.586;12.286;2023-04-09T01:16:05;4.97;;;1.83;;
31730;SDS011;18310;55.586;12.286;2023-04-09T01:19:15;5.03;;;1.80;;
31730;SDS011;18310;55.586;12.286;2023-04-09T01:22:41;5.18;;;1.73;;
31730;SDS011;18310;55.586;12.286;2023-04-09T01:26:00;7.23;;;2.00;;
31730;SDS011;18310;55.586;12.286;2023-04-09T01:29:10;5.07;;;1.98;;
31730;SDS011;18310;55.586;12.286;2023-04-09T01:32:15;4.47;;;1.70;;
31730;SDS011;18310;55.586;12.286;2023-04-09T01:35:21;4.10;;;1.70;;
31730;SDS011;18310;55.586;12.286;2023-04-09T01:38:25;4.47;;;1.55;;
31730;SDS011;18310;55.586;12.286;2023-04-09T01:41:30;4.10;;;2.05;;
31730;SDS011;18310;55.586;12.286;2023-04-09T01:44:36;3.97;;;1.40;;
31730;SDS011;18310;55.586;12.286;2023-04-09T01:47:41;8.52;;;2.55;;
31730;SDS011;18310;55.586;12.286;2023-04-09T01:50:44;7.45;;;1.95;;
31730;SDS011;18310;55.586;12.286;2023-04-09T01:53:48;7.57;;;1.83;;
31730;SDS011;18310;55.586;12.286;2023-04-09T01:56:51;5.45;;;1.70;;
31730;SDS011;18310;55.586;12.286;2023-04-09T01:59:56;5.10;;;1.40;;
31730;SDS011;18310;55.586;12.286;2023-04-09T02:03:00;4.18;;;1.50;;
31730;SDS011;18310;55.586;12.286;2023-04-09T02:06:12;4.07;;;1.90;;
31730;SDS011;18310;55.586;12.286;2023-04-09T02:09:17;4.43;;;1.58;;
31730;SDS011;18310;55.586;12.286;2023-04-09T02:12:23;4.32;;;1.98;;
31730;SDS011;18310;55.586;12.286;2023-04-09T02:15:29;3.47;;;1.48;;
31730;SDS011;18310;55.586;12.286;2023-04-09T02:18:34;7.03;;;2.00;;
31730;SDS011;18310;55.586;12.286;2023-04-09T02:21:37;3.67;;;1.50;;
31730;SDS011;18310;55.586;12.286;2023-04-09T02:24:40;5.72;;;2.40;;
31730;SDS011;18310;55.586;12.286;2023-04-09T02:27:43;5.75;;;2.15;;
31730;SDS011;18310;55.586;12.286;2023-04-09T02:30:48;3.97;;;1.70;;
31730;SDS011;18310;55.586;12.286;2023-04-09T02:33:51;8.55;;;1.90;;
31730;SDS011;18310;55.586;12.286;2023-04-09T02:36:55;8.02;;;2.08;;
31730;SDS011;18310;55.586;12.286;2023-04-09T02:39:58;3.30;;;1.50;;
31730;SDS011;18310;55.586;12.286;2023-04-09T02:43:01;3.20;;;1.67;;
31730;SDS011;18310;55.586;12.286;2023-04-09T02:46:06;4.73;;;1.60;;
31730;SDS011;18310;55.586;12.286;2023-04-09T02:49:10;6.13;;;1.88;;
31730;SDS011;18310;55.586;12.286;2023-04-09T02:52:13;6.47;;;2.10;;
31730;SDS011;18310;55.586;12.286;2023-04-09T02:55:17;5.10;;;2.08;;
31730;SDS011;18310;55.586;12.286;2023-04-09T03:01:24;4.93;;;1.42;;
31730;SDS011;18310;55.586;12.286;2023-04-09T03:04:28;2.20;;;1.20;;
31730;SDS011;18310;55.586;12.286;2023-04-09T03:07:31;5.60;;;1.83;;
31730;SDS011;18310;55.586;12.286;2023-04-09T03:10:34;5.43;;;1.73;;
31730;SDS011;18310;55.586;12.286;2023-04-09T03:13:37;5.43;;;1.70;;
31730;SDS011;18310;55.586;12.286;2023-04-09T03:16:42;5.73;;;1.60;;
31730;SDS011;18310;55.586;12.286;2023-04-09T03:19:45;3.13;;;1.38;;
31730;SDS011;18310;55.586;12.286;2023-04-09T03:22:49;3.85;;;1.80;;
31730;SDS011;18310;55.586;12.286;2023-04-09T03:25:58;4.57;;;1.70;;
31730;SDS011;18310;55.586;12.286;2023-04-09T03:29:02;4.53;;;1.60;;
31730;SDS011;18310;55.586;12.286;2023-04-09T03:32:07;4.43;;;1.92;;
31730;SDS011;18310;55.586;12.286;2023-04-09T03:35:11;5.20;;;1.55;;
31730;SDS011;18310;55.586;12.286;2023-04-09T03:38:14;5.17;;;1.70;;
31730;SDS011;18310;55.586;12.286;2023-04-09T03:41:17;4.65;;;2.10;;
31730;SDS011;18310;55.586;12.286;2023-04-09T03:44:20;4.80;;;2.03;;
31730;SDS011;18310;55.586;12.286;2023-04-09T03:47:25;7.20;;;2.03;;
31730;SDS011;18310;55.586;12.286;2023-04-09T03:50:28;4.57;;;2.10;;
31730;SDS011;18310;55.586;12.286;2023-04-09T03:53:31;6.43;;;2.20;;
31730;SDS011;18310;55.586;12.286;2023-04-09T03:56:34;5.32;;;2.50;;
31730;SDS011;18310;55.586;12.286;2023-04-09T03:59:37;4.20;;;1.80;;
31730;SDS011;18310;55.586;12.286;2023-04-09T04:02:42;4.75;;;2.08;;
31730;SDS011;18310;55.586;12.286;2023-04-09T04:05:45;6.05;;;2.28;;
31730;SDS011;18310;55.586;12.286;2023-04-09T04:08:49;4.38;;;2.25;;
31730;SDS011;18310;55.586;12.286;2023-04-09T04:11:53;3.72;;;1.83;;
31730;SDS011;18310;55.586;12.286;2023-04-09T04:14:57;7.28;;;2.33;;
31730;SDS011;18310;55.586;12.286;2023-04-09T04:18:02;7.70;;;2.10;;
31730;SDS011;18310;55.586;12.286;2023-04-09T04:21:11;8.70;;;2.83;;
31730;SDS011;18310;55.586;12.286;2023-04-09T04:24:15;4.80;;;2.22;;
31730;SDS011;18310;55.586;12.286;2023-04-09T04:27:18;7.35;;;2.50;;
31730;SDS011;18310;55.586;12.286;2023-04-09T04:30:21;6.88;;;2.90;;
31730;SDS011;18310;55.586;12.286;2023-04-09T04:33:26;6.57;;;2.95;;
31730;SDS011;18310;55.586;12.286;2023-04-09T04:36:29;7.60;;;2.65;;
31730;SDS011;18310;55.586;12.286;2023-04-09T04:39:32;4.83;;;2.20;;
31730;SDS011;18310;55.586;12.286;2023-04-09T04:42:36;5.57;;;2.30;;
31730;SDS011;18310;55.586;12.286;2023-04-09T04:45:39;4.80;;;2.37;;
31730;SDS011;18310;55.586;12.286;2023-04-09T04:48:44;7.40;;;2.07;;
31730;SDS011;18310;55.586;12.286;2023-04-09T04:51:47;5.03;;;2.47;;
31730;SDS011;18310;55.586;12.286;2023-04-09T04:54:50;6.80;;;2.50;;
31730;SDS011;18310;55.586;12.286;2023-04-09T04:57:54;4.50;;;2.15;;
31730;SDS011;18310;55.586;12.286;2023-04-09T05:00:57;7.50;;;2.47;;
31730;SDS011;18310;55.586;12.286;2023-04-09T05:04:02;6.82;;;2.83;;
31730;SDS011;18310;55.586;12.286;2023-04-09T05:07:06;5.68;;;2.22;;
31730;SDS011;18310;55.586;12.286;2023-04-09T05:10:09;5.15;;;2.42;;
31730;SDS011;18310;55.586;12.286;2023-04-09T05:13:12;6.18;;;2.65;;
31730;SDS011;18310;55.586;12.286;2023-04-09T05:16:16;4.97;;;2.13;;
31730;SDS011;18310;55.586;12.286;2023-04-09T05:19:21;9.80;;;2.72;;
31730;SDS011;18310;55.586;12.286;2023-04-09T05:22:24;6.32;;;2.92;;
31730;SDS011;18310;55.586;12.286;2023-04-09T05:25:28;6.63;;;2.67;;
31730;SDS011;18310;55.586;12.286;2023-04-09T05:28:31;5.93;;;2.10;;
31730;SDS011;18310;55.586;12.286;2023-04-09T05:31:34;4.60;;;2.10;;
31730;SDS011;18310;55.586;12.286;2023-04-09T05:34:39;4.47;;;2.17;;
31730;SDS011;18310;55.586;12.286;2023-04-09T05:37:42;4.88;;;2.05;;
31730;SDS011;18310;55.586;12.286;2023-04-09T05:40:46;3.67;;;2.10;;
31730;SDS011;18310;55.586;12.286;2023-04-09T05:43:49;5.93;;;2.10;;
31730;SDS011;18310;55.586;12.286;2023-04-09T05:46:53;5.67;;;2.10;;
31730;SDS011;18310;55.586;12.286;2023-04-09T05:49:57;3.53;;;1.83;;
31730;SDS011;18310;55.586;12.286;2023-04-09T05:53:01;5.57;;;2.05;;
31730;SDS011;18310;55.586;12.286;2023-04-09T05:56:11;4.13;;;1.87;;
31730;SDS011;18310;55.586;12.286;2023-04-09T05:59:15;6.15;;;2.17;;
31730;SDS011;18310;55.586;12.286;2023-04-09T06:02:18;5.22;;;2.10;;
31730;SDS011;18310;55.586;12.286;2023-04-09T06:05:23;11.57;;;2.37;;
31730;SDS011;18310;55.586;12.286;2023-04-09T06:08:26;5.68;;;2.13;;
31730;SDS011;18310;55.586;12.286;2023-04-09T06:11:30;5.57;;;1.93;;
31730;SDS011;18310;55.586;12.286;2023-04-09T06:14:33;6.95;;;2.08;;
31730;SDS011;18310;55.586;12.286;2023-04-09T06:17:37;3.08;;;1.90;;
31730;SDS011;18310;55.586;12.286;2023-04-09T06:20:41;3.50;;;1.83;;
31730;SDS011;18310;55.586;12.286;2023-04-09T06:23:44;3.53;;;1.60;;
31730;SDS011;18310;55.586;12.286;2023-04-09T06:26:48;4.45;;;1.98;;
31730;SDS011;18310;55.586;12.286;2023-04-09T06:29:51;7.10;;;2.00;;
31730;SDS011;18310;55.586;12.286;2023-04-09T06:32:54;4.03;;;2.23;;
31730;SDS011;18310;55.586;12.286;2023-04-09T06:35:59;4.60;;;1.90;;
31730;SDS011;18310;55.586;12.286;2023-04-09T06:39:03;4.93;;;2.28;;
31730;SDS011;18310;55.586;12.286;2023-04-09T06:42:06;3.40;;;1.67;;
31730;SDS011;18310;55.586;12.286;2023-04-09T06:45:09;5.97;;;1.80;;
31730;SDS011;18310;55.586;12.286;2023-04-09T06:48:13;3.40;;;1.85;;
31730;SDS011;18310;55.586;12.286;2023-04-09T06:51:18;3.20;;;1.40;;
31730;SDS011;18310;55.586;12.286;2023-04-09T06:54:21;3.55;;;1.77;;
31730;SDS011;18310;55.586;12.286;2023-04-09T06:57:25;2.83;;;1.27;;
31730;SDS011;18310;55.586;12.286;2023-04-09T07:00:29;2.88;;;1.13;;
31730;SDS011;18310;55.586;12.286;2023-04-09T07:06:38;3.83;;;1.40;;
31730;SDS011;18310;55.586;12.286;2023-04-09T07:09:41;3.17;;;1.50;;
31730;SDS011;18310;55.586;12.286;2023-04-09T07:12:45;2.30;;;1.17;;
31730;SDS011;18310;55.586;12.286;2023-04-09T07:15:48;3.13;;;1.23;;
31730;SDS011;18310;55.586;12.286;2023-04-09T07:18:51;3.33;;;0.98;;
31730;SDS011;18310;55.586;12.286;2023-04-09T07:21:55;2.97;;;1.17;;
31730;SDS011;18310;55.586;12.286;2023-04-09T07:24:59;2.67;;;1.27;;
31730;SDS011;18310;55.586;12.286;2023-04-09T07:28:02;2.40;;;1.10;;
31730;SDS011;18310;55.586;12.286;2023-04-09T07:31:06;3.43;;;1.53;;
31730;SDS011;18310;55.586;12.286;2023-04-09T07:34:09;2.60;;;1.23;;
31730;SDS011;18310;55.586;12.286;2023-04-09T07:37:14;3.53;;;1.47;;
31730;SDS011;18310;55.586;12.286;2023-04-09T07:40:17;7.40;;;1.65;;
31730;SDS011;18310;55.586;12.286;2023-04-09T07:43:21;3.65;;;1.40;;
31730;SDS011;18310;55.586;12.286;2023-04-09T07:46:24;12.48;;;6.03;;
31730;SDS011;18310;55.586;12.286;2023-04-09T07:49:27;3.47;;;1.60;;
31730;SDS011;18310;55.586;12.286;2023-04-09T07:52:32;2.43;;;1.40;;
31730;SDS011;18310;55.586;12.286;2023-04-09T07:55:35;3.88;;;1.85;;
31730;SDS011;18310;55.586;12.286;2023-04-09T07:58:38;4.35;;;1.70;;
31730;SDS011;18310;55.586;12.286;2023-04-09T08:01:42;2.92;;;1.40;;
31730;SDS011;18310;55.586;12.286;2023-04-09T08:07:50;3.35;;;1.60;;
31730;SDS011;18310;55.586;12.286;2023-04-09T08:10:54;2.70;;;1.35;;
31730;SDS011;18310;55.586;12.286;2023-04-09T08:13:57;4.40;;;1.77;;
31730;SDS011;18310;55.586;12.286;2023-04-09T08:17:02;2.67;;;1.60;;
31730;SDS011;18310;55.586;12.286;2023-04-09T08:20:06;5.27;;;1.70;;
31730;SDS011;18310;55.586;12.286;2023-04-09T08:23:12;2.85;;;1.50;;
31730;SDS011;18310;55.586;12.286;2023-04-09T08:26:15;3.17;;;1.50;;
31730;SDS011;18310;55.586;12.286;2023-04-09T08:29:18;3.77;;;1.33;;
31730;SDS011;18310;55.586;12.286;2023-04-09T08:32:22;3.63;;;1.30;;
31730;SDS011;18310;55.586;12.286;2023-04-09T08:35:25;3.73;;;1.60;;
31730;SDS011;18310;55.586;12.286;2023-04-09T08:38:31;3.67;;;1.52;;
31730;SDS011;18310;55.586;12.286;2023-04-09T08:41:34;4.45;;;1.48;;
31730;SDS011;18310;55.586;12.286;2023-04-09T08:44:44;5.97;;;1.90;;
31730;SDS011;18310;55.586;12.286;2023-04-09T08:47:48;4.50;;;1.45;;
31730;SDS011;18310;55.586;12.286;2023-04-09T08:50:54;4.78;;;2.00;;
31730;SDS011;18310;55.586;12.286;2023-04-09T08:54:00;3.17;;;1.63;;
31730;SDS011;18310;55.586;12.286;2023-04-09T08:57:05;3.10;;;1.55;;
31730;SDS011;18310;55.586;12.286;2023-04-09T09:00:09;3.50;;;1.40;;
31730;SDS011;18310;55.586;12.286;2023-04-09T09:03:13;3.88;;;1.75;;
31730;SDS011;18310;55.586;12.286;2023-04-09T09:06:19;4.00;;;1.75;;
31730;SDS011;18310;55.586;12.286;2023-04-09T09:09:25;9.90;;;1.92;;
31730;SDS011;18310;55.586;12.286;2023-04-09T09:12:32;3.55;;;1.40;;
31730;SDS011;18310;55.586;12.286;2023-04-09T09:15:36;5.32;;;1.92;;
31730;SDS011;18310;55.586;12.286;2023-04-09T09:18:40;3.43;;;1.60;;
31730;SDS011;18310;55.586;12.286;2023-04-09T09:21:53;3.08;;;1.42;;
31730;SDS011;18310;55.586;12.286;2023-04-09T09:24:58;3.38;;;1.73;;
31730;SDS011;18310;55.586;12.286;2023-04-09T09:28:05;3.83;;;1.80;;
31730;SDS011;18310;55.586;12.286;2023-04-09T09:31:10;3.83;;;1.50;;
31730;SDS011;18310;55.586;12.286;2023-04-09T09:34:14;3.72;;;2.10;;
31730;SDS011;18310;55.586;12.286;2023-04-09T09:40:29;3.95;;;1.73;;
31730;SDS011;18310;55.586;12.286;2023-04-09T09:43:38;4.28;;;1.60;;
31730;SDS011;18310;55.586;12.286;2023-04-09T09:46:42;2.90;;;1.27;;
31730;SDS011;18310;55.586;12.286;2023-04-09T09:49:47;5.75;;;1.83;;
31730;SDS011;18310;55.586;12.286;2023-04-09T09:52:52;3.30;;;1.52;;
31730;SDS011;18310;55.586;12.286;2023-04-09T09:56:05;3.70;;;1.63;;
31730;SDS011;18310;55.586;12.286;2023-04-09T09:59:12;2.67;;;1.27;;
31730;SDS011;18310;55.586;12.286;2023-04-09T10:02:19;6.40;;;1.65;;
31730;SDS011;18310;55.586;12.286;2023-04-09T10:05:25;3.22;;;1.52;;
31730;SDS011;18310;55.586;12.286;2023-04-09T10:11:36;4.75;;;1.90;;
31730;SDS011;18310;55.586;12.286;2023-04-09T10:14:43;4.15;;;1.88;;
31730;SDS011;18310;55.586;12.286;2023-04-09T10:20:53;6.22;;;1.55;;
31730;SDS011;18310;55.586;12.286;2023-04-09T10:24:00;6.50;;;1.75;;
31730;SDS011;18310;55.586;12.286;2023-04-09T10:27:11;2.60;;;1.42;;
31730;SDS011;18310;55.586;12.286;2023-04-09T10:30:30;4.05;;;1.30;;
31730;SDS011;18310;55.586;12.286;2023-04-09T10:33:34;4.75;;;1.65;;
31730;SDS011;18310;55.586;12.286;2023-04-09T10:36:38;3.63;;;1.48;;
31730;SDS011;18310;55.586;12.286;2023-04-09T10:39:46;3.33;;;1.33;;
31730;SDS011;18310;55.586;12.286;2023-04-09T10:42:52;4.25;;;1.52;;
31730;SDS011;18310;55.586;12.286;2023-04-09T10:45:57;4.10;;;1.63;;
31730;SDS011;18310;55.586;12.286;2023-04-09T10:49:07;2.80;;;1.42;;
31730;SDS011;18310;55.586;12.286;2023-04-09T10:52:12;3.50;;;1.80;;
31730;SDS011;18310;55.586;12.286;2023-04-09T10:55:29;5.47;;;1.45;;
31730;SDS011;18310;55.586;12.286;2023-04-09T10:58:38;5.35;;;1.67;;
31730;SDS011;18310;55.586;12.286;2023-04-09T11:01:42;3.13;;;1.45;;
31730;SDS011;18310;55.586;12.286;2023-04-09T11:04:57;3.58;;;2.00;;
31730;SDS011;18310;55.586;12.286;2023-04-09T11:08:07;4.90;;;1.60;;
31730;SDS011;18310;55.586;12.286;2023-04-09T11:11:12;3.42;;;1.38;;
31730;SDS011;18310;55.586;12.286;2023-04-09T11:14:19;4.93;;;1.55;;
31730;SDS011;18310;55.586;12.286;2023-04-09T11:17:24;3.38;;;1.70;;
31730;SDS011;18310;55.586;12.286;2023-04-09T11:20:27;3.23;;;1.57;;
31730;SDS011;18310;55.586;12.286;2023-04-09T11:23:32;4.65;;;1.80;;
31730;SDS011;18310;55.586;12.286;2023-04-09T11:26:35;3.92;;;1.40;;
31730;SDS011;18310;55.586;12.286;2023-04-09T11:29:40;2.60;;;1.33;;
31730;SDS011;18310;55.586;12.286;2023-04-09T11:32:43;3.30;;;1.70;;
31730;SDS011;18310;55.586;12.286;2023-04-09T11:35:47;5.20;;;1.60;;
31730;SDS011;18310;55.586;12.286;2023-04-09T11:38:50;4.00;;;1.67;;
31730;SDS011;18310;55.586;12.286;2023-04-09T11:41:55;3.42;;;1.48;;
31730;SDS011;18310;55.586;12.286;2023-04-09T11:45:00;5.63;;;1.88;;
31730;SDS011;18310;55.586;12.286;2023-04-09T11:48:05;3.28;;;1.65;;
31730;SDS011;18310;55.586;12.286;2023-04-09T11:51:09;4.57;;;2.22;;
31730;SDS011;18310;55.586;12.286;2023-04-09T11:54:13;5.18;;;2.45;;
31730;SDS011;18310;55.586;12.286;2023-04-09T11:57:16;3.47;;;1.63;;
31730;SDS011;18310;55.586;12.286;2023-04-09T12:00:21;9.52;;;2.47;;
31730;SDS011;18310;55.586;12.286;2023-04-09T12:03:29;5.35;;;2.47;;
31730;SDS011;18310;55.586;12.286;2023-04-09T12:06:38;5.45;;;2.22;;
31730;SDS011;18310;55.586;12.286;2023-04-09T12:09:46;6.13;;;2.63;;
31730;SDS011;18310;55.586;12.286;2023-04-09T12:12:50;5.13;;;2.58;;
31730;SDS011;18310;55.586;12.286;2023-04-09T12:15:54;6.13;;;2.50;;
31730;SDS011;18310;55.586;12.286;2023-04-09T12:19:00;6.40;;;2.67;;
31730;SDS011;18310;55.586;12.286;2023-04-09T12:22:03;6.23;;;2.30;;
31730;SDS011;18310;55.586;12.286;2023-04-09T12:25:07;4.60;;;2.20;;
31730;SDS011;18310;55.586;12.286;2023-04-09T12:28:11;6.53;;;2.65;;
31730;SDS011;18310;55.586;12.286;2023-04-09T12:31:20;7.50;;;2.10;;
31730;SDS011;18310;55.586;12.286;2023-04-09T12:34:24;5.90;;;1.95;;
31730;SDS011;18310;55.586;12.286;2023-04-09T12:37:28;4.90;;;2.03;;
31730;SDS011;18310;55.586;12.286;2023-04-09T12:40:32;3.95;;;1.75;;
31730;SDS011;18310;55.586;12.286;2023-04-09T12:43:36;4.13;;;2.13;;
31730;SDS011;18310;55.586;12.286;2023-04-09T12:46:41;4.73;;;2.13;;
31730;SDS011;18310;55.586;12.286;2023-04-09T12:49:44;3.85;;;1.95;;
31730;SDS011;18310;55.586;12.286;2023-04-09T12:52:48;4.43;;;1.75;;
31730;SDS011;18310;55.586;12.286;2023-04-09T12:55:51;4.75;;;2.38;;
31730;SDS011;18310;55.586;12.286;2023-04-09T12:58:55;4.45;;;2.40;;
31730;SDS011;18310;55.586;12.286;2023-04-09T13:01:59;4.13;;;2.20;;
31730;SDS011;18310;55.586;12.286;2023-04-09T13:05:04;4.55;;;2.50;;
31730;SDS011;18310;55.586;12.286;2023-04-09T13:08:07;5.13;;;2.00;;
31730;SDS011;18310;55.586;12.286;2023-04-09T13:11:11;3.92;;;2.13;;
31730;SDS011;18310;55.586;12.286;2023-04-09T13:14:14;4.70;;;2.40;;
31730;SDS011;18310;55.586;12.286;2023-04-09T13:17:19;3.90;;;2.03;;
31730;SDS011;18310;55.586;12.286;2023-04-09T13:20:23;5.60;;;2.28;;
31730;SDS011;18310;55.586;12.286;2023-04-09T13:23:26;4.05;;;2.22;;
31730;SDS011;18310;55.586;12.286;2023-04-09T13:26:29;4.88;;;2.42;;
31730;SDS011;18310;55.586;12.286;2023-04-09T13:29:32;5.83;;;2.07;;
31730;SDS011;18310;55.586;12.286;2023-04-09T13:32:37;6.23;;;2.87;;
31730;SDS011;18310;55.586;12.286;2023-04-09T13:35:40;4.93;;;1.83;;
31730;SDS011;18310;55.586;12.286;2023-04-09T13:38:43;4.35;;;2.13;;
31730;SDS011;18310;55.586;12.286;2023-04-09T13:41:47;5.53;;;2.22;;
31730;SDS011;18310;55.586;12.286;2023-04-09T13:44:50;7.70;;;3.08;;
31730;SDS011;18310;55.586;12.286;2023-04-09T13:47:56;4.40;;;2.30;;
31730;SDS011;18310;55.586;12.286;2023-04-09T13:50:59;3.38;;;1.85;;
31730;SDS011;18310;55.586;12.286;2023-04-09T13:54:03;4.13;;;2.30;;
31730;SDS011;18310;55.586;12.286;2023-04-09T13:57:11;4.50;;;2.35;;
31730;SDS011;18310;55.586;12.286;2023-04-09T14:00:15;4.03;;;2.33;;
31730;SDS011;18310;55.586;12.286;2023-04-09T14:03:22;4.43;;;2.00;;
31730;SDS011;18310;55.586;12.286;2023-04-09T14:06:25;3.47;;;1.90;;
31730;SDS011;18310;55.586;12.286;2023-04-09T14:09:28;4.47;;;1.90;;
31730;SDS011;18310;55.586;12.286;2023-04-09T14:12:33;4.13;;;1.95;;
31730;SDS011;18310;55.586;12.286;2023-04-09T14:15:36;3.53;;;1.83;;
31730;SDS011;18310;55.586;12.286;2023-04-09T14:18:41;3.67;;;1.60;;
31730;SDS011;18310;55.586;12.286;2023-04-09T14:21:44;3.70;;;1.80;;
31730;SDS011;18310;55.586;12.286;2023-04-09T14:24:47;3.85;;;1.70;;
31730;SDS011;18310;55.586;12.286;2023-04-09T14:27:51;3.42;;;1.70;;
31730;SDS011;18310;55.586;12.286;2023-04-09T14:30:54;3.37;;;1.43;;
31730;SDS011;18310;55.586;12.286;2023-04-09T14:33:59;4.53;;;2.03;;
31730;SDS011;18310;55.586;12.286;2023-04-09T14:37:02;5.82;;;1.70;;
31730;SDS011;18310;55.586;12.286;2023-04-09T14:40:06;2.97;;;1.37;;
31730;SDS011;18310;55.586;12.286;2023-04-09T14:43:10;3.45;;;1.40;;
31730;SDS011;18310;55.586;12.286;2023-04-09T14:46:13;3.47;;;1.17;;
31730;SDS011;18310;55.586;12.286;2023-04-09T14:52:22;3.33;;;1.50;;
31730;SDS011;18310;55.586;12.286;2023-04-09T14:58:29;3.15;;;1.35;;
31730;SDS011;18310;55.586;12.286;2023-04-09T15:01:32;5.28;;;1.60;;
31730;SDS011;18310;55.586;12.286;2023-04-09T15:04:37;2.70;;;1.00;;
31730;SDS011;18310;55.586;12.286;2023-04-09T15:07:41;3.67;;;1.27;;
31730;SDS011;18310;55.586;12.286;2023-04-09T15:10:44;3.03;;;0.75;;
31730;SDS011;18310;55.586;12.286;2023-04-09T15:13:47;2.07;;;0.93;;
31730;SDS011;18310;55.586;12.286;2023-04-09T15:16:51;2.85;;;1.08;;
31730;SDS011;18310;55.586;12.286;2023-04-09T15:19:57;2.78;;;0.88;;
31730;SDS011;18310;55.586;12.286;2023-04-09T15:23:01;2.10;;;0.90;;
31730;SDS011;18310;55.586;12.286;2023-04-09T15:26:04;2.83;;;0.80;;
31730;SDS011;18310;55.586;12.286;2023-04-09T15:29:08;3.30;;;0.95;;
31730;SDS011;18310;55.586;12.286;2023-04-09T15:32:11;3.33;;;1.30;;
31730;SDS011;18310;55.586;12.286;2023-04-09T15:35:16;2.73;;;0.83;;
31730;SDS011;18310;55.586;12.286;2023-04-09T15:38:25;2.70;;;1.00;;
31730;SDS011;18310;55.586;12.286;2023-04-09T15:41:28;1.73;;;0.80;;
31730;SDS011;18310;55.586;12.286;2023-04-09T15:44:32;2.08;;;0.90;;
31730;SDS011;18310;55.586;12.286;2023-04-09T15:47:36;3.20;;;0.98;;
31730;SDS011;18310;55.586;12.286;2023-04-09T15:50:41;4.85;;;1.83;;
31730;SDS011;18310;55.586;12.286;2023-04-09T15:53:45;2.58;;;1.17;;
31730;SDS011;18310;55.586;12.286;2023-04-09T15:56:48;2.53;;;1.00;;
31730;SDS011;18310;55.586;12.286;2023-04-09T15:59:51;3.35;;;1.10;;
31730;SDS011;18310;55.586;12.286;2023-04-09T16:02:55;2.38;;;0.98;;
31730;SDS011;18310;55.586;12.286;2023-04-09T16:06:00;2.03;;;0.87;;
31730;SDS011;18310;55.586;12.286;2023-04-09T16:09:08;2.50;;;0.98;;
31730;SDS011;18310;55.586;12.286;2023-04-09T16:12:11;2.27;;;1.00;;
31730;SDS011;18310;55.586;12.286;2023-04-09T16:18:19;2.22;;;0.88;;
31730;SDS011;18310;55.586;12.286;2023-04-09T16:21:23;2.97;;;1.30;;
31730;SDS011;18310;55.586;12.286;2023-04-09T16:24:28;2.78;;;1.08;;
31730;SDS011;18310;55.586;12.286;2023-04-09T16:27:32;2.78;;;0.90;;
31730;SDS011;18310;55.586;12.286;2023-04-09T16:30:35;3.55;;;1.00;;
31730;SDS011;18310;55.586;12.286;2023-04-09T16:33:38;3.47;;;1.17;;
31730;SDS011;18310;55.586;12.286;2023-04-09T16:36:43;3.78;;;1.00;;
31730;SDS011;18310;55.586;12.286;2023-04-09T16:39:47;2.95;;;0.90;;
31730;SDS011;18310;55.586;12.286;2023-04-09T16:42:50;6.53;;;1.03;;
31730;SDS011;18310;55.586;12.286;2023-04-09T16:45:53;2.47;;;0.80;;
31730;SDS011;18310;55.586;12.286;2023-04-09T16:52:02;1.70;;;0.75;;
31730;SDS011;18310;55.586;12.286;2023-04-09T16:55:06;3.25;;;1.10;;
31730;SDS011;18310;55.586;12.286;2023-04-09T17:01:13;2.53;;;0.90;;
31730;SDS011;18310;55.586;12.286;2023-04-09T17:04:16;3.20;;;0.80;;
31730;SDS011;18310;55.586;12.286;2023-04-09T17:07:21;2.33;;;1.10;;
31730;SDS011;18310;55.586;12.286;2023-04-09T17:10:25;2.75;;;0.90;;
31730;SDS011;18310;55.586;12.286;2023-04-09T17:13:30;4.70;;;1.23;;
31730;SDS011;18310;55.586;12.286;2023-04-09T17:16:35;2.45;;;1.00;;
31730;SDS011;18310;55.586;12.286;2023-04-09T17:19:39;1.80;;;0.80;;
31730;SDS011;18310;55.586;12.286;2023-04-09T17:22:45;4.05;;;0.85;;
31730;SDS011;18310;55.586;12.286;2023-04-09T17:25:49;2.20;;;0.95;;
31730;SDS011;18310;55.586;12.286;2023-04-09T17:28:53;8.90;;;0.95;;
31730;SDS011;18310;55.586;12.286;2023-04-09T17:31:56;2.43;;;0.90;;
31730;SDS011;18310;55.586;12.286;2023-04-09T17:38:05;1.95;;;0.70;;
31730;SDS011;18310;55.586;12.286;2023-04-09T17:41:09;2.15;;;0.90;;
31730;SDS011;18310;55.586;12.286;2023-04-09T17:44:12;2.17;;;0.73;;
31730;SDS011;18310;55.586;12.286;2023-04-09T17:47:15;1.30;;;0.70;;
31730;SDS011;18310;55.586;12.286;2023-04-09T17:50:18;5.93;;;0.82;;
31730;SDS011;18310;55.586;12.286;2023-04-09T17:53:23;1.33;;;0.67;;
31730;SDS011;18310;55.586;12.286;2023-04-09T17:56:27;1.73;;;0.60;;
31730;SDS011;18310;55.586;12.286;2023-04-09T17:59:31;2.42;;;0.90;;
31730;SDS011;18310;55.586;12.286;2023-04-09T18:02:35;2.58;;;0.95;;
31730;SDS011;18310;55.586;12.286;2023-04-09T18:05:38;1.42;;;0.77;;
31730;SDS011;18310;55.586;12.286;2023-04-09T18:08:43;3.17;;;0.90;;
31730;SDS011;18310;55.586;12.286;2023-04-09T18:11:46;2.63;;;0.93;;
31730;SDS011;18310;55.586;12.286;2023-04-09T18:14:54;3.35;;;0.80;;
31730;SDS011;18310;55.586;12.286;2023-04-09T18:17:57;2.38;;;0.70;;
31730;SDS011;18310;55.586;12.286;2023-04-09T18:21:01;2.72;;;1.25;;
31730;SDS011;18310;55.586;12.286;2023-04-09T18:24:08;1.33;;;0.52;;
31730;SDS011;18310;55.586;12.286;2023-04-09T18:27:12;1.83;;;0.55;;
31730;SDS011;18310;55.586;12.286;2023-04-09T18:30:15;1.70;;;0.87;;
31730;SDS011;18310;55.586;12.286;2023-04-09T18:33:19;2.30;;;0.93;;
31730;SDS011;18310;55.586;12.286;2023-04-09T18:36:22;3.60;;;0.90;;
31730;SDS011;18310;55.586;12.286;2023-04-09T18:39:27;3.67;;;0.60;;
31730;SDS011;18310;55.586;12.286;2023-04-09T18:42:31;2.28;;;0.90;;
31730;SDS011;18310;55.586;12.286;2023-04-09T18:45:34;2.47;;;0.90;;
31730;SDS011;18310;55.586;12.286;2023-04-09T18:48:38;2.67;;;1.13;;
31730;SDS011;18310;55.586;12.286;2023-04-09T18:51:44;2.75;;;0.82;;